createdAt,value
2019-02-18T00:01:53.492Z,58.94
2019-02-18T00:06:57.200Z,59.12
2019-02-18T00:11:59.460Z,59.29
2019-02-18T00:17:03.143Z,59.31
2019-02-18T00:22:05.934Z,59.41
2019-02-18T00:27:08.191Z,59.37
2019-02-18T00:32:10.378Z,59.66
2019-02-18T00:37:12.762Z,59.76
2019-02-18T00:42:15.754Z,59.65
2019-02-18T00:47:18.485Z,60.02
2019-02-18T00:52:21.506Z,60.04
2019-02-18T00:57:23.862Z,60.44
2019-02-18T01:02:26.416Z,60.18
2019-02-18T01:07:34.766Z,60.07
2019-02-18T01:12:33.992Z,59.81
2019-02-18T01:17:36.299Z,59.63
2019-02-18T01:22:38.859Z,59.40
2019-02-18T01:27:41.426Z,59.22
2019-02-18T01:32:44.410Z,59.04
2019-02-18T01:37:46.654Z,59.02
2019-02-18T01:42:48.939Z,58.96
2019-02-18T01:47:51.745Z,59.13
2019-02-18T01:52:54.504Z,59.14
2019-02-18T01:57:56.789Z,58.93
2019-02-18T02:02:59.043Z,58.92
2019-02-18T02:08:02.216Z,58.83
2019-02-18T02:13:30.549Z,59.15
2019-02-18T02:18:34.068Z,59.22
2019-02-18T02:23:36.764Z,59.35
2019-02-18T02:28:39.149Z,59.19
2019-02-18T02:33:41.406Z,59.34
2019-02-18T02:38:43.798Z,59.40
2019-02-18T02:43:46.093Z,59.49
2019-02-18T02:48:48.391Z,59.88
2019-02-18T02:53:51.131Z,59.76
2019-02-18T02:58:53.923Z,59.82
2019-02-18T03:03:56.212Z,60.27
2019-02-18T03:08:59.015Z,60.48
2019-02-18T03:14:01.761Z,60.79
2019-02-18T03:19:04.323Z,60.72
2019-02-18T03:24:07.274Z,61.05
2019-02-18T03:30:33.178Z,61.07
2019-02-18T03:35:35.758Z,61.26
2019-02-18T03:40:38.406Z,61.22
2019-02-18T03:45:41.866Z,61.38
2019-02-18T03:50:44.190Z,61.50
2019-02-18T03:55:46.619Z,61.76
2019-02-18T04:00:48.963Z,61.93
2019-02-18T04:05:51.752Z,62.14
2019-02-18T04:10:54.619Z,62.24
2019-02-18T04:15:57.228Z,62.38
2019-02-18T04:20:59.976Z,62.49
2019-02-18T04:26:02.913Z,62.61
2019-02-18T04:31:05.168Z,62.86
2019-02-18T04:36:07.458Z,62.82
2019-02-18T04:41:10.182Z,62.87
2019-02-18T04:46:13.050Z,62.98
2019-02-18T04:51:16.059Z,63.05
2019-02-18T04:56:18.595Z,63.10
2019-02-18T05:01:21.112Z,63.27
2019-02-18T05:06:25.455Z,63.40
2019-02-18T05:11:28.120Z,63.69
2019-02-18T05:16:30.458Z,63.92
2019-02-18T05:21:32.741Z,63.56
2019-02-18T05:26:35.321Z,63.68
2019-02-18T05:31:38.146Z,63.75
2019-02-18T05:36:40.456Z,63.98
2019-02-18T05:41:43.019Z,64.20
2019-02-18T05:46:46.357Z,64.39
2019-02-18T05:51:48.679Z,63.98
2019-02-18T05:56:51.104Z,63.61
2019-02-18T06:01:53.529Z,63.62
2019-02-18T06:06:55.851Z,64.16
2019-02-18T06:11:58.132Z,64.36
2019-02-18T06:17:02.776Z,64.31
2019-02-18T06:22:04.702Z,64.34
2019-02-18T06:27:07.912Z,64.54
2019-02-18T06:32:10.080Z,64.54
2019-02-18T06:37:12.721Z,64.58
2019-02-18T06:42:15.609Z,64.42
2019-02-18T06:47:21.926Z,64.47
2019-02-18T06:52:24.157Z,64.33
2019-02-18T06:57:59.329Z,64.35
2019-02-18T07:03:07.361Z,64.44
2019-02-18T07:08:25.400Z,64.24
2019-02-18T07:13:27.986Z,63.95
2019-02-18T07:18:30.688Z,63.61
2019-02-18T07:23:33.705Z,63.37
2019-02-18T07:28:36.213Z,63.04
2019-02-18T07:33:38.540Z,62.40
2019-02-18T07:38:40.960Z,62.39
2019-02-18T07:43:43.709Z,62.38
2019-02-18T07:48:46.814Z,62.58
2019-02-18T07:53:49.149Z,62.56
2019-02-18T07:58:51.467Z,62.52
2019-02-18T08:03:54.363Z,61.45
2019-02-18T08:08:57.629Z,59.55
2019-02-18T08:14:00.577Z,58.28
2019-02-18T08:19:02.812Z,56.98
2019-02-18T08:24:09.122Z,55.13
2019-02-18T08:29:13.257Z,53.30
2019-02-18T08:34:16.741Z,53.30
2019-02-18T08:39:20.181Z,52.30
2019-02-18T08:44:23.207Z,51.12
2019-02-18T08:49:25.783Z,50.30
2019-02-18T08:54:28.033Z,49.54
2019-02-18T08:59:30.465Z,48.97
2019-02-18T09:04:32.986Z,47.35
2019-02-18T09:09:35.215Z,46.49
2019-02-18T09:14:37.810Z,45.19
2019-02-18T09:19:40.713Z,45.18
2019-02-18T09:24:49.247Z,42.55
2019-02-18T09:29:52.193Z,43.20
2019-02-18T09:35:01.769Z,43.20
2019-02-18T09:40:02.296Z,39.85
2019-02-18T09:45:06.532Z,38.94
2019-02-18T09:50:09.601Z,38.36
2019-02-18T09:55:12.090Z,37.85
2019-02-18T10:00:15.156Z,36.14
2019-02-18T10:05:18.574Z,35.57
2019-02-18T10:10:21.413Z,34.99
